KSZL/SZL METAR and TAF weather

Enter ICAO airport designator
Station Type Date Time Source
KSZL METAR 2022/05/23 14:56 UTC NOAA

KSZL 231456Z 08010KT 10SM SCT090 BKN200 16/08 A3023 RMK AO2A SLP238 T01550075 58002 $


Station Type Date Time Source
KSZL Decoded METAR 2022/05/23 14:56 UTC NOAA

Whiteman Air Force Base, MO, United States (KSZL) 38-44N 093-33W
May 23, 2022 - 10:56 AM EDT / 2022.05.23 1456 UTC
Wind: from the E (080 degrees) at 12 MPH (10 KT):0
Visibility: 10 mile(s):0
Sky conditions: mostly cloudy
Temperature: 59.9 F (15.5 C)
Dew Point: 45.5 F (7.5 C)
Relative Humidity: 58%
Pressure (altimeter): 30.23 in. Hg (1023 hPa)
Pressure tendency: 0.01 inches (0.2 hPa) lower than three hours ago
ob: KSZL 231456Z 08010KT 10SM SCT090 BKN200 16/08 A3023 RMK AO2A SLP238 T01550075 58002
cycle: 15

Station Type Date Time Source
KSZL TAF 2022/05/23 11:12 UTC NOAA

TAF KSZL 231100Z 2311/2417 VRB06KT 9999 SKC QNH3020INS
BECMG 2315/2316 10012G18KT 9999 BKN060 621109 QNH3008INS
BECMG 2405/2406 12009KT 9999 BKN020 621109 QNH3007INS
TEMPO 2406/2412 08012KT 4800 SHRA BKN010
BECMG 2411/2412 10012G18KT 3200 RA BKN007 QNH2995INS TX21/2321Z TN05/2311Z

Example: see airport list